SGESSBRJ

Guest
Details From SGES - Guarani Intl
To SBRJ - Santos-dumont
Flight Number -
Tags Generated
Created
Modified
Stats Distance 658 nm / 1,219 km
Max Altitude 0 ft / 0 m
Waypoints 4
Social Downloads 3
Likes 0
Share VATSIM

Download

Looking for another format? Having issues loading an existing format? Contact us
Advertisement - Login to hide

Notes

Generated

Route

SGES EMB JPG SBRJ

ID Type Via Altitude Latitude Longitude Leg Dist Tot Dist Heading (true) Name
O SGES APT - 0 ft / 0 m -25.46712˚ -54.85464˚ - 0 nm - -
EMB NDB - 0 ft / 0 m -23.85067˚ -46.81633˚ 449 nm 449 nm 79° / 76° EMBUGUACU NDB
JPG NDB - 0 ft / 0 m -22.98789˚ -43.36891˚ 196 nm 646 nm 75° / 74° JACAREPAGUA NDB
O SBRJ APT - 0 ft / 0 m -22.91603˚ -43.16328˚ 12 nm 658 nm 69° / 69° -

Altitude Profile

Advertisement - Login to hide

Weather


0- 5 10 15 20 25 30 35+ Temperature / ° C

Clouds and Precipitation
Forecast for 2017-12-13 06:00 UTC. Updated 30 minutes ago

Ground ~20,000 ft ~40,000 ft Winds

SGES

Details ICAO SGES (AGT)
Name GUARANI INTL
Region Paraguay
Timezone America/Asuncion (UTC-3.0)
Stats Elevation 846 ft / 258 m (AMSL)
Location -25.455499° -54.843593°
Runways 1
Magnetic Variation 16.079° W

METAR

SGES 130100Z 18003KT CAVOK 26/20 Q1011

Decode

TAF

Not found

Departure Runways

ID Width Length Bearing (true) Bearing (mag) Surface Threshold Offset Overrun Length
05 148 ft / 45 m 11,175 ft / 3,406 m 40.64° 56.72° Asphalt 0 ft / 0 m 197 ft / 60 m
23 148 ft / 45 m 11,175 ft / 3,406 m 220.63° 236.71° Asphalt 0 ft / 0 m 197 ft / 60 m

SBRJ

Details ICAO SBRJ (SDU)
Name Santos-Dumont
Region Brazil
Timezone Unknown (UTC+0.0)
Stats Elevation 11 ft / 3 m (AMSL)
Location -22.910460° -43.163133°
Runways 2
Magnetic Variation 22.781° W

METAR

SBRJ 130100Z 16003KT 9999 SCT020 BKN040 22/18 Q1019

Decode

TAF

TAF SBRJ 122000Z 1300/1312 10010KT 9999 SCT015 BKN040TN23/1308Z TX25/1311Z PROB30 1308/1310 07005KT 4000 BR BKN012 RMK PGX

Decode

Destination Runways

ID Width Length Bearing (true) Bearing (mag) Surface Threshold Offset Overrun Length
02L 98 ft / 30 m 4,154 ft / 1,266 m 358.02° 20.80° Asphalt 0 ft / 0 m 80 ft / 24 m
02R 138 ft / 42 m 4,361 ft / 1,329 m 358.01° 20.79° Asphalt 0 ft / 0 m 80 ft / 24 m
20L 138 ft / 42 m 4,361 ft / 1,329 m 178.01° 200.79° Asphalt 0 ft / 0 m 80 ft / 24 m
20R 98 ft / 30 m 4,154 ft / 1,266 m 178.02° 200.80° Asphalt 0 ft / 0 m 95 ft / 29 m

Approach Navaids

Runway Type Ident Frequency Range Bearing (true) Bearing (mag) Slope Elevation
20L Localiser IRJ 111.10 MHz 18 nm / 33 km 172.42° 195.20° - 11 ft / 3 m (AMSL)